KMGR/MGR METAR and TAF weather

Enter ICAO airport designator
Station Type Date Time Source
KMGR METAR 2018/12/11 18:35 UTC NOAA

KMGR 111835Z AUTO 31004KT 10SM OVC019 08/04 A3031 RMK AO2


Station Type Date Time Source
KMGR Decoded METAR 2018/12/11 18:35 UTC NOAA

Moultrie, Moultrie Municipal Airport, GA, United States (KMGR) 31-05-05N 083-48-11W
Dec 11, 2018 - 01:35 PM EST / 2018.12.11 1835 UTC
Wind: from the NW (310 degrees) at 5 MPH (4 KT):0
Visibility: 10 mile(s):0
Sky conditions: overcast
Temperature: 46 F (8 C)
Dew Point: 39 F (4 C)
Relative Humidity: 75%
Pressure (altimeter): 30.31 in. Hg (1026 hPa)
ob: KMGR 111835Z AUTO 31004KT 10SM OVC019 08/04 A3031 RMK AO2
cycle: 18

Station Type Date Time Source
KMGR TAF UTC NOAA

Error!


Example: see airport list